Manton, California
Current Conditions -  °F | °C
As of 1:00 PM on Saturday 22 Nov 2014 (Local Time) from KRDD Reporting Station
Few Clouds Few Clouds  
Wind Chill: 58°   Ceiling: Unl
Heat Index: 58°   Visibility: 10mi
Dew Point: 53°   Wind: 12mph
Humidity: 84%   Direction: 180°S
Pressure: 30.06"   Gusts: NA
Location:  40.43°N, 121.87°W
Report Text: KRDD 222100Z 18010KT 10SM FEW012 14/12 A3006 RMK AO2 T01440117
Loading
Personal Weather Stations






























Interactive Weather Map New forecast layout! Learn more

10-Day Weather Forecast

Advertisements
Track Severe Weather on mobile